Terminal Aerodrome Forecast
Issued by NWS

Current Version | Previous Version | Text Only | Print | Product List | Glossary On
Versions: 1 2 3 4 5 6 7 8 9 10 11 12 13 14 15 16 17 18 19 20 21 22
903
FTUS41 KILN 210538
TAFLCK
TAF
KLCK 210538Z 2106/2206 09003KT P6SM OVC200
     FM211300 17007KT P6SM SCT035 BKN220
     FM211600 20011KT P6SM SCT035 BKN210
     FM212300 20008KT P6SM VCSH SCT035 OVC070
     FM220000 19007KT P6SM SCT035 OVC060
     FM220300 20006KT 6SM BR BKN028 OVC035=

USA.gov is the U.S. government's official web portal to all federal, state and local government web resources and services.